sensor_id;sensor_type;location;lat;lon;timestamp;pressure;altitude;pressure_sealevel;temperature;humidity
72721;BME280;60835;50.974;10.322;2022-09-17T00:01:03;97363.34;;;10.58;100.00
72721;BME280;60835;50.974;10.322;2022-09-17T00:03:31;97346.84;;;10.56;100.00
72721;BME280;60835;50.974;10.322;2022-09-17T00:06:07;97352.59;;;10.60;100.00
72721;BME280;60835;50.974;10.322;2022-09-17T00:14:57;97291.31;;;10.56;100.00
72721;BME280;60835;50.974;10.322;2022-09-17T00:17:23;97286.91;;;10.49;100.00
72721;BME280;60835;50.974;10.322;2022-09-17T00:19:49;97284.47;;;10.47;100.00
72721;BME280;60835;50.974;10.322;2022-09-17T00:22:16;97251.00;;;10.39;100.00
72721;BME280;60835;50.974;10.322;2022-09-17T00:24:42;97240.31;;;10.33;100.00
72721;BME280;60835;50.974;10.322;2022-09-17T00:27:08;97173.78;;;10.15;100.00
72721;BME280;60835;50.974;10.322;2022-09-17T00:29:35;97179.19;;;10.21;100.00
72721;BME280;60835;50.974;10.322;2022-09-17T00:32:01;97145.34;;;10.17;100.00
72721;BME280;60835;50.974;10.322;2022-09-17T00:34:28;97114.94;;;10.21;100.00
72721;BME280;60835;50.974;10.322;2022-09-17T00:36:54;97086.41;;;10.16;100.00
72721;BME280;60835;50.974;10.322;2022-09-17T00:39:21;97063.25;;;10.18;100.00
72721;BME280;60835;50.974;10.322;2022-09-17T00:41:47;97052.22;;;10.15;100.00
72721;BME280;60835;50.974;10.322;2022-09-17T00:44:43;97012.84;;;10.20;100.00
72721;BME280;60835;50.974;10.322;2022-09-17T00:47:18;96989.50;;;10.09;100.00
72721;BME280;60835;50.974;10.322;2022-09-17T00:49:46;96978.31;;;10.07;100.00
72721;BME280;60835;50.974;10.322;2022-09-17T00:52:18;96959.09;;;9.98;100.00
72721;BME280;60835;50.974;10.322;2022-09-17T00:54:55;96956.88;;;9.95;100.00
72721;BME280;60835;50.974;10.322;2022-09-17T00:57:23;96935.66;;;9.89;100.00
72721;BME280;60835;50.974;10.322;2022-09-17T00:59:50;96921.09;;;9.93;100.00
72721;BME280;60835;50.974;10.322;2022-09-17T01:02:17;96913.31;;;9.91;100.00
72721;BME280;60835;50.974;10.322;2022-09-17T01:04:44;96892.13;;;9.85;100.00
72721;BME280;60835;50.974;10.322;2022-09-17T01:10:05;96869.56;;;9.82;100.00
72721;BME280;60835;50.974;10.322;2022-09-17T01:15:48;96731.03;;;9.85;100.00
72721;BME280;60835;50.974;10.322;2022-09-17T01:20:58;96706.03;;;9.59;100.00
72721;BME280;60835;50.974;10.322;2022-09-17T01:24:17;96701.44;;;9.68;100.00
72721;BME280;60835;50.974;10.322;2022-09-17T01:32:24;96658.75;;;9.64;100.00
72721;BME280;60835;50.974;10.322;2022-09-17T01:38:08;96569.50;;;9.53;100.00
72721;BME280;60835;50.974;10.322;2022-09-17T01:40:49;96543.78;;;9.62;100.00
72721;BME280;60835;50.974;10.322;2022-09-17T01:43:40;96493.84;;;9.60;100.00
72721;BME280;60835;50.974;10.322;2022-09-17T01:46:25;96417.00;;;9.42;100.00
72721;BME280;60835;50.974;10.322;2022-09-17T01:48:58;96398.28;;;9.37;100.00
72721;BME280;60835;50.974;10.322;2022-09-17T01:51:29;96407.28;;;9.49;100.00
72721;BME280;60835;50.974;10.322;2022-09-17T01:54:23;96389.41;;;9.51;100.00
72721;BME280;60835;50.974;10.322;2022-09-17T01:56:57;96396.13;;;9.47;100.00
72721;BME280;60835;50.974;10.322;2022-09-17T01:59:33;96376.44;;;9.50;100.00
72721;BME280;60835;50.974;10.322;2022-09-17T02:02:19;96350.78;;;9.37;100.00
72721;BME280;60835;50.974;10.322;2022-09-17T02:04:57;96350.38;;;9.40;100.00
72721;BME280;60835;50.974;10.322;2022-09-17T02:07:26;96352.00;;;9.35;100.00
72721;BME280;60835;50.974;10.322;2022-09-17T02:09:59;96354.06;;;9.39;100.00
72721;BME280;60835;50.974;10.322;2022-09-17T02:12:52;96291.03;;;9.10;100.00
72721;BME280;60835;50.974;10.322;2022-09-17T02:15:26;96337.00;;;9.42;100.00
72721;BME280;60835;50.974;10.322;2022-09-17T02:17:57;96342.69;;;9.39;100.00
72721;BME280;60835;50.974;10.322;2022-09-17T02:20:45;96340.69;;;9.47;100.00
72721;BME280;60835;50.974;10.322;2022-09-17T02:23:26;96344.31;;;9.40;100.00
72721;BME280;60835;50.974;10.322;2022-09-17T02:26:03;96334.34;;;9.35;100.00
72721;BME280;60835;50.974;10.322;2022-09-17T02:28:54;96343.72;;;9.44;100.00
72721;BME280;60835;50.974;10.322;2022-09-17T02:31:23;96340.16;;;9.24;100.00
72721;BME280;60835;50.974;10.322;2022-09-17T02:33:52;96336.16;;;9.28;100.00
72721;BME280;60835;50.974;10.322;2022-09-17T02:36:20;96334.94;;;9.37;100.00
72721;BME280;60835;50.974;10.322;2022-09-17T02:38:47;96328.50;;;9.40;100.00
72721;BME280;60835;50.974;10.322;2022-09-17T02:41:25;96321.53;;;9.32;100.00
72721;BME280;60835;50.974;10.322;2022-09-17T02:44:07;96325.22;;;9.38;100.00
72721;BME280;60835;50.974;10.322;2022-09-17T02:55:00;96310.19;;;9.38;100.00
72721;BME280;60835;50.974;10.322;2022-09-17T02:57:36;96317.50;;;9.43;100.00
72721;BME280;60835;50.974;10.322;2022-09-17T03:00:17;96311.28;;;9.50;100.00
72721;BME280;60835;50.974;10.322;2022-09-17T03:02:55;96289.88;;;9.32;100.00
72721;BME280;60835;50.974;10.322;2022-09-17T03:05:24;96296.44;;;9.49;100.00
72721;BME280;60835;50.974;10.322;2022-09-17T03:07:53;96297.66;;;9.53;100.00
72721;BME280;60835;50.974;10.322;2022-09-17T03:10:20;96277.38;;;9.60;100.00
72721;BME280;60835;50.974;10.322;2022-09-17T03:12:46;96282.41;;;9.49;100.00
72721;BME280;60835;50.974;10.322;2022-09-17T03:15:13;96265.16;;;9.46;100.00
72721;BME280;60835;50.974;10.322;2022-09-17T03:17:39;96257.84;;;9.48;100.00
72721;BME280;60835;50.974;10.322;2022-09-17T03:20:06;96252.38;;;9.56;100.00
72721;BME280;60835;50.974;10.322;2022-09-17T03:22:33;96220.09;;;9.48;100.00
72721;BME280;60835;50.974;10.322;2022-09-17T03:25:00;96217.66;;;9.46;100.00
72721;BME280;60835;50.974;10.322;2022-09-17T03:27:27;96238.38;;;9.62;100.00
72721;BME280;60835;50.974;10.322;2022-09-17T03:29:53;96235.53;;;9.64;100.00
72721;BME280;60835;50.974;10.322;2022-09-17T03:32:19;96235.16;;;9.60;100.00
72721;BME280;60835;50.974;10.322;2022-09-17T03:34:46;96237.56;;;9.55;100.00
72721;BME280;60835;50.974;10.322;2022-09-17T03:37:13;96226.19;;;9.61;100.00
72721;BME280;60835;50.974;10.322;2022-09-17T03:39:39;96212.41;;;9.59;100.00
72721;BME280;60835;50.974;10.322;2022-09-17T03:42:05;96212.41;;;9.72;100.00
72721;BME280;60835;50.974;10.322;2022-09-17T03:44:35;96204.28;;;9.61;100.00
72721;BME280;60835;50.974;10.322;2022-09-17T03:47:01;96182.75;;;9.70;100.00
72721;BME280;60835;50.974;10.322;2022-09-17T03:49:30;96164.47;;;9.75;100.00
72721;BME280;60835;50.974;10.322;2022-09-17T03:51:57;96136.06;;;9.71;100.00
72721;BME280;60835;50.974;10.322;2022-09-17T03:54:24;96130.16;;;9.75;100.00
72721;BME280;60835;50.974;10.322;2022-09-17T03:56:51;96010.56;;;9.68;100.00
72721;BME280;60835;50.974;10.322;2022-09-17T03:59:20;96021.72;;;9.70;100.00
72721;BME280;60835;50.974;10.322;2022-09-17T04:01:47;96030.84;;;9.74;100.00
72721;BME280;60835;50.974;10.322;2022-09-17T04:04:14;96016.84;;;9.67;100.00
72721;BME280;60835;50.974;10.322;2022-09-17T04:06:40;96036.13;;;9.74;100.00
72721;BME280;60835;50.974;10.322;2022-09-17T04:09:07;96038.34;;;9.77;100.00
72721;BME280;60835;50.974;10.322;2022-09-17T04:11:36;96033.47;;;9.74;100.00
72721;BME280;60835;50.974;10.322;2022-09-17T04:14:03;96045.88;;;9.74;100.00
72721;BME280;60835;50.974;10.322;2022-09-17T04:16:31;96040.59;;;9.67;100.00
72721;BME280;60835;50.974;10.322;2022-09-17T04:18:57;96053.59;;;9.75;100.00
72721;BME280;60835;50.974;10.322;2022-09-17T04:21:24;96057.22;;;9.74;100.00
72721;BME280;60835;50.974;10.322;2022-09-17T04:23:50;96061.69;;;9.80;100.00
72721;BME280;60835;50.974;10.322;2022-09-17T04:26:17;96044.47;;;9.71;100.00
72721;BME280;60835;50.974;10.322;2022-09-17T04:28:43;96041.81;;;9.78;100.00
72721;BME280;60835;50.974;10.322;2022-09-17T04:31:10;96034.25;;;9.95;100.00
72721;BME280;60835;50.974;10.322;2022-09-17T04:33:36;96041.56;;;9.86;100.00
72721;BME280;60835;50.974;10.322;2022-09-17T04:36:03;96018.63;;;9.87;100.00
72721;BME280;60835;50.974;10.322;2022-09-17T04:38:29;96021.22;;;9.93;100.00
72721;BME280;60835;50.974;10.322;2022-09-17T04:40:56;96010.91;;;9.85;100.00
72721;BME280;60835;50.974;10.322;2022-09-17T04:43:22;95955.91;;;9.75;100.00
72721;BME280;60835;50.974;10.322;2022-09-17T04:45:49;95936.25;;;9.71;100.00
72721;BME280;60835;50.974;10.322;2022-09-17T04:48:16;95955.25;;;9.87;100.00
72721;BME280;60835;50.974;10.322;2022-09-17T04:50:43;95940.66;;;9.77;100.00
72721;BME280;60835;50.974;10.322;2022-09-17T04:53:09;95942.22;;;9.92;100.00
72721;BME280;60835;50.974;10.322;2022-09-17T04:55:35;95936.97;;;9.85;100.00
72721;BME280;60835;50.974;10.322;2022-09-17T04:58:02;95948.28;;;9.99;100.00
72721;BME280;60835;50.974;10.322;2022-09-17T05:00:29;95948.69;;;9.96;100.00
72721;BME280;60835;50.974;10.322;2022-09-17T05:02:56;95945.09;;;9.84;100.00
72721;BME280;60835;50.974;10.322;2022-09-17T05:05:23;95949.97;;;9.87;100.00
72721;BME280;60835;50.974;10.322;2022-09-17T05:07:49;95964.34;;;9.97;100.00
72721;BME280;60835;50.974;10.322;2022-09-17T05:10:17;95931.72;;;9.78;100.00
72721;BME280;60835;50.974;10.322;2022-09-17T05:12:51;95972.22;;;10.04;100.00
72721;BME280;60835;50.974;10.322;2022-09-17T05:15:20;95973.47;;;10.01;100.00
72721;BME280;60835;50.974;10.322;2022-09-17T05:17:46;95977.16;;;9.94;100.00
72721;BME280;60835;50.974;10.322;2022-09-17T05:20:14;95954.44;;;9.93;100.00
72721;BME280;60835;50.974;10.322;2022-09-17T05:22:48;95961.06;;;10.02;100.00
72721;BME280;60835;50.974;10.322;2022-09-17T05:25:18;95933.31;;;9.93;100.00
72721;BME280;60835;50.974;10.322;2022-09-17T05:27:45;95948.88;;;10.01;100.00
72721;BME280;60835;50.974;10.322;2022-09-17T05:30:12;95905.75;;;9.75;100.00
72721;BME280;60835;50.974;10.322;2022-09-17T05:32:38;95940.53;;;10.04;100.00
72721;BME280;60835;50.974;10.322;2022-09-17T05:35:06;95944.22;;;10.03;100.00
72721;BME280;60835;50.974;10.322;2022-09-17T05:37:33;95929.97;;;10.04;100.00
72721;BME280;60835;50.974;10.322;2022-09-17T05:40:00;95927.31;;;10.10;100.00
72721;BME280;60835;50.974;10.322;2022-09-17T05:42:27;95917.38;;;10.12;100.00
72721;BME280;60835;50.974;10.322;2022-09-17T05:44:54;95916.13;;;10.15;100.00
72721;BME280;60835;50.974;10.322;2022-09-17T05:47:20;95905.97;;;10.18;100.00
72721;BME280;60835;50.974;10.322;2022-09-17T05:49:46;95919.34;;;10.17;100.00
72721;BME280;60835;50.974;10.322;2022-09-17T05:52:13;95921.81;;;10.18;100.00
72721;BME280;60835;50.974;10.322;2022-09-17T05:54:39;95909.84;;;10.16;100.00
72721;BME280;60835;50.974;10.322;2022-09-17T05:57:05;95928.66;;;10.26;100.00
72721;BME280;60835;50.974;10.322;2022-09-17T05:59:32;95937.34;;;10.33;100.00
72721;BME280;60835;50.974;10.322;2022-09-17T06:01:59;95958.28;;;10.34;100.00
72721;BME280;60835;50.974;10.322;2022-09-17T06:04:25;95968.81;;;10.41;100.00
72721;BME280;60835;50.974;10.322;2022-09-17T06:06:54;95995.22;;;10.41;100.00
72721;BME280;60835;50.974;10.322;2022-09-17T06:09:21;96006.69;;;10.35;100.00
72721;BME280;60835;50.974;10.322;2022-09-17T06:11:47;96025.84;;;10.24;100.00
72721;BME280;60835;50.974;10.322;2022-09-17T06:14:13;96067.22;;;10.43;100.00
72721;BME280;60835;50.974;10.322;2022-09-17T06:16:40;96087.19;;;10.70;100.00
72721;BME280;60835;50.974;10.322;2022-09-17T06:19:07;96137.00;;;10.73;100.00
72721;BME280;60835;50.974;10.322;2022-09-17T06:21:33;96182.63;;;10.62;100.00
72721;BME280;60835;50.974;10.322;2022-09-17T06:24:00;96205.75;;;10.73;100.00
72721;BME280;60835;50.974;10.322;2022-09-17T06:26:26;96220.16;;;10.84;100.00
72721;BME280;60835;50.974;10.322;2022-09-17T06:28:53;96248.84;;;10.80;100.00
72721;BME280;60835;50.974;10.322;2022-09-17T06:31:19;96298.06;;;10.94;100.00
72721;BME280;60835;50.974;10.322;2022-09-17T06:33:45;96302.88;;;11.17;100.00
72721;BME280;60835;50.974;10.322;2022-09-17T06:36:13;96344.78;;;11.20;100.00
72721;BME280;60835;50.974;10.322;2022-09-17T06:38:40;96410.38;;;11.12;100.00
72721;BME280;60835;50.974;10.322;2022-09-17T06:41:06;96445.31;;;11.33;100.00
72721;BME280;60835;50.974;10.322;2022-09-17T06:43:33;96515.78;;;11.15;100.00
72721;BME280;60835;50.974;10.322;2022-09-17T06:46:01;96558.31;;;10.87;100.00
72721;BME280;60835;50.974;10.322;2022-09-17T06:48:29;96542.69;;;10.98;100.00
72721;BME280;60835;50.974;10.322;2022-09-17T06:51:00;96582.38;;;11.12;100.00
72721;BME280;60835;50.974;10.322;2022-09-17T06:53:28;96566.69;;;11.04;100.00
72721;BME280;60835;50.974;10.322;2022-09-17T06:55:56;96607.19;;;11.11;100.00
72721;BME280;60835;50.974;10.322;2022-09-17T06:58:30;96631.41;;;11.08;100.00
72721;BME280;60835;50.974;10.322;2022-09-17T07:01:01;96659.53;;;11.22;100.00
72721;BME280;60835;50.974;10.322;2022-09-17T07:03:29;96681.97;;;11.52;100.00
72721;BME280;60835;50.974;10.322;2022-09-17T07:05:57;96755.69;;;11.35;100.00
72721;BME280;60835;50.974;10.322;2022-09-17T07:08:23;96799.44;;;11.25;100.00
72721;BME280;60835;50.974;10.322;2022-09-17T07:10:54;96799.13;;;11.00;100.00
72721;BME280;60835;50.974;10.322;2022-09-17T07:13:21;96811.47;;;11.34;100.00
72721;BME280;60835;50.974;10.322;2022-09-17T07:15:55;96813.69;;;12.10;100.00
72721;BME280;60835;50.974;10.322;2022-09-17T07:18:23;96992.41;;;12.36;100.00
72721;BME280;60835;50.974;10.322;2022-09-17T07:20:58;97050.31;;;12.26;100.00
72721;BME280;60835;50.974;10.322;2022-09-17T07:23:26;97103.34;;;12.32;100.00
72721;BME280;60835;50.974;10.322;2022-09-17T07:25:55;97170.16;;;12.96;100.00
72721;BME280;60835;50.974;10.322;2022-09-17T07:28:22;97281.47;;;13.58;100.00
72721;BME280;60835;50.974;10.322;2022-09-17T07:30:52;97405.84;;;13.76;100.00
72721;BME280;60835;50.974;10.322;2022-09-17T07:33:21;97435.50;;;12.83;100.00
72721;BME280;60835;50.974;10.322;2022-09-17T07:36:00;97399.03;;;13.19;100.00
72721;BME280;60835;50.974;10.322;2022-09-17T07:38:28;97410.16;;;13.36;100.00
72721;BME280;60835;50.974;10.322;2022-09-17T07:41:06;97434.91;;;12.88;100.00
72721;BME280;60835;50.974;10.322;2022-09-17T07:43:34;97410.13;;;13.02;100.00
72721;BME280;60835;50.974;10.322;2022-09-17T07:46:02;97440.56;;;12.78;100.00
72721;BME280;60835;50.974;10.322;2022-09-17T07:48:29;97427.03;;;12.94;100.00
72721;BME280;60835;50.974;10.322;2022-09-17T07:50:56;97455.56;;;12.92;100.00
72721;BME280;60835;50.974;10.322;2022-09-17T07:53:23;97470.97;;;12.75;100.00
72721;BME280;60835;50.974;10.322;2022-09-17T07:55:54;97498.16;;;13.05;100.00
72721;BME280;60835;50.974;10.322;2022-09-17T07:58:39;97523.34;;;13.37;100.00
72721;BME280;60835;50.974;10.322;2022-09-17T08:01:07;97561.81;;;14.03;100.00
72721;BME280;60835;50.974;10.322;2022-09-17T08:03:35;97642.84;;;13.52;100.00
72721;BME280;60835;50.974;10.322;2022-09-17T08:06:14;97657.03;;;13.02;100.00
72721;BME280;60835;50.974;10.322;2022-09-17T08:08:41;97648.44;;;13.00;100.00
72721;BME280;60835;50.974;10.322;2022-09-17T08:11:09;97672.06;;;12.95;100.00
72721;BME280;60835;50.974;10.322;2022-09-17T08:13:37;97689.53;;;13.88;100.00
72721;BME280;60835;50.974;10.322;2022-09-17T08:16:09;97756.19;;;14.08;100.00
72721;BME280;60835;50.974;10.322;2022-09-17T08:18:40;97784.53;;;14.01;100.00
72721;BME280;60835;50.974;10.322;2022-09-17T08:21:09;97830.59;;;15.06;100.00
72721;BME280;60835;50.974;10.322;2022-09-17T08:23:37;97877.66;;;14.43;100.00
72721;BME280;60835;50.974;10.322;2022-09-17T08:26:05;97857.19;;;14.23;100.00
72721;BME280;60835;50.974;10.322;2022-09-17T08:28:34;97903.72;;;14.76;100.00
72721;BME280;60835;50.974;10.322;2022-09-17T08:31:05;97963.56;;;15.35;100.00
72721;BME280;60835;50.974;10.322;2022-09-17T08:33:35;98004.13;;;15.31;100.00
72721;BME280;60835;50.974;10.322;2022-09-17T08:36:03;98036.00;;;15.73;100.00
72721;BME280;60835;50.974;10.322;2022-09-17T08:38:31;98082.22;;;16.21;100.00
72721;BME280;60835;50.974;10.322;2022-09-17T08:43:45;98083.16;;;16.00;100.00
72721;BME280;60835;50.974;10.322;2022-09-17T08:46:15;98083.91;;;15.11;100.00
72721;BME280;60835;50.974;10.322;2022-09-17T08:48:45;98070.97;;;14.87;100.00
72721;BME280;60835;50.974;10.322;2022-09-17T08:51:33;98071.72;;;14.59;100.00
72721;BME280;60835;50.974;10.322;2022-09-17T09:00:00;98037.97;;;13.95;100.00
72721;BME280;60835;50.974;10.322;2022-09-17T09:05:44;98054.25;;;14.21;100.00
72721;BME280;60835;50.974;10.322;2022-09-17T09:08:40;98056.72;;;14.23;100.00
72721;BME280;60835;50.974;10.322;2022-09-17T09:11:22;98086.50;;;15.74;100.00
72721;BME280;60835;50.974;10.322;2022-09-17T09:13:59;98147.72;;;15.40;100.00
72721;BME280;60835;50.974;10.322;2022-09-17T09:16:30;98120.59;;;15.79;100.00
72721;BME280;60835;50.974;10.322;2022-09-17T09:19:04;98165.03;;;16.68;100.00
72721;BME280;60835;50.974;10.322;2022-09-17T09:21:51;98172.34;;;16.47;100.00
72721;BME280;60835;50.974;10.322;2022-09-17T09:24:23;98189.66;;;16.57;100.00
72721;BME280;60835;50.974;10.322;2022-09-17T09:27:08;98173.47;;;15.33;100.00
72721;BME280;60835;50.974;10.322;2022-09-17T09:30:01;98158.50;;;14.75;100.00
72721;BME280;60835;50.974;10.322;2022-09-17T09:35:23;98115.19;;;14.16;100.00
72721;BME280;60835;50.974;10.322;2022-09-17T09:37:59;98068.66;;;13.39;100.00
72721;BME280;60835;50.974;10.322;2022-09-17T09:40:35;98019.78;;;13.25;100.00
72721;BME280;60835;50.974;10.322;2022-09-17T09:43:20;98035.09;;;13.01;100.00
72721;BME280;60835;50.974;10.322;2022-09-17T09:46:25;98056.06;;;12.73;100.00
72721;BME280;60835;50.974;10.322;2022-09-17T09:51:42;97966.31;;;12.54;100.00
72721;BME280;60835;50.974;10.322;2022-09-17T09:57:16;97942.56;;;13.12;100.00
72721;BME280;60835;50.974;10.322;2022-09-17T09:59:43;97922.88;;;13.21;100.00
72721;BME280;60835;50.974;10.322;2022-09-17T10:02:10;97928.72;;;13.02;100.00
72721;BME280;60835;50.974;10.322;2022-09-17T10:04:37;97892.63;;;12.93;100.00
72721;BME280;60835;50.974;10.322;2022-09-17T10:07:05;97857.31;;;13.07;100.00
72721;BME280;60835;50.974;10.322;2022-09-17T10:09:35;97848.91;;;14.88;100.00
72721;BME280;60835;50.974;10.322;2022-09-17T10:14:34;97958.75;;;13.76;100.00
72721;BME280;60835;50.974;10.322;2022-09-17T10:17:15;97936.50;;;13.98;100.00
72721;BME280;60835;50.974;10.322;2022-09-17T10:19:44;97938.75;;;13.80;100.00
72721;BME280;60835;50.974;10.322;2022-09-17T10:24:52;97931.44;;;13.82;100.00
72721;BME280;60835;50.974;10.322;2022-09-17T10:27:21;97917.66;;;13.28;100.00
72721;BME280;60835;50.974;10.322;2022-09-17T10:30:02;97880.91;;;13.02;100.00
72721;BME280;60835;50.974;10.322;2022-09-17T10:32:38;97839.44;;;12.87;100.00
72721;BME280;60835;50.974;10.322;2022-09-17T10:35:05;97785.41;;;12.50;100.00
72721;BME280;60835;50.974;10.322;2022-09-17T10:37:51;97707.69;;;11.83;100.00
72721;BME280;60835;50.974;10.322;2022-09-17T10:42:48;97562.78;;;12.91;100.00
72721;BME280;60835;50.974;10.322;2022-09-17T10:45:24;97531.94;;;14.08;100.00
72721;BME280;60835;50.974;10.322;2022-09-17T10:47:51;97676.84;;;14.93;100.00
72721;BME280;60835;50.974;10.322;2022-09-17T10:50:18;97839.13;;;16.03;100.00
72721;BME280;60835;50.974;10.322;2022-09-17T10:52:50;97934.91;;;16.97;100.00
72721;BME280;60835;50.974;10.322;2022-09-17T10:55:37;98061.94;;;16.80;100.00
72721;BME280;60835;50.974;10.322;2022-09-17T11:01:08;98112.78;;;17.33;100.00
72721;BME280;60835;50.974;10.322;2022-09-17T11:03:46;98154.06;;;18.55;100.00
72721;BME280;60835;50.974;10.322;2022-09-17T11:21:03;98281.00;;;18.27;100.00
72721;BME280;60835;50.974;10.322;2022-09-17T11:24:25;98299.94;;;18.78;100.00
72721;BME280;60835;50.974;10.322;2022-09-17T11:27:05;98331.47;;;18.83;100.00
72721;BME280;60835;50.974;10.322;2022-09-17T11:35:39;98383.00;;;18.85;100.00
72721;BME280;60835;50.974;10.322;2022-09-17T11:38:13;98392.97;;;19.99;100.00
72721;BME280;60835;50.974;10.322;2022-09-17T11:41:01;98405.56;;;19.55;100.00
72721;BME280;60835;50.974;10.322;2022-09-17T11:43:32;98396.38;;;19.18;100.00
72721;BME280;60835;50.974;10.322;2022-09-17T11:46:19;98401.50;;;19.32;100.00
72721;BME280;60835;50.974;10.322;2022-09-17T11:48:51;98422.19;;;20.27;100.00
72721;BME280;60835;50.974;10.322;2022-09-17T11:51:36;98411.22;;;20.85;100.00
72721;BME280;60835;50.974;10.322;2022-09-17T11:54:25;98417.44;;;18.75;100.00
72721;BME280;60835;50.974;10.322;2022-09-17T11:57:02;98401.31;;;20.23;100.00
72721;BME280;60835;50.974;10.322;2022-09-17T12:04:41;98413.75;;;17.76;100.00
72721;BME280;60835;50.974;10.322;2022-09-17T12:12:59;98400.50;;;17.61;100.00
72721;BME280;60835;50.974;10.322;2022-09-17T12:15:30;98428.81;;;18.90;100.00
72721;BME280;60835;50.974;10.322;2022-09-17T12:18:14;98417.84;;;17.38;100.00
72721;BME280;60835;50.974;10.322;2022-09-17T12:20:59;98371.75;;;16.46;100.00
72721;BME280;60835;50.974;10.322;2022-09-17T12:23:37;98369.72;;;16.69;100.00
72721;BME280;60835;50.974;10.322;2022-09-17T12:29:39;98343.69;;;16.08;100.00
72721;BME280;60835;50.974;10.322;2022-09-17T12:32:49;98286.25;;;16.12;100.00
72721;BME280;60835;50.974;10.322;2022-09-17T12:35:41;98200.53;;;14.58;100.00
72721;BME280;60835;50.974;10.322;2022-09-17T12:41:18;97948.44;;;13.08;100.00
72721;BME280;60835;50.974;10.322;2022-09-17T12:47:00;97935.97;;;15.15;100.00
72721;BME280;60835;50.974;10.322;2022-09-17T12:49:52;98076.13;;;18.05;100.00
72721;BME280;60835;50.974;10.322;2022-09-17T12:55:37;98186.59;;;19.78;100.00
72721;BME280;60835;50.974;10.322;2022-09-17T13:01:01;98283.81;;;18.98;100.00
72721;BME280;60835;50.974;10.322;2022-09-17T13:03:51;98240.03;;;19.86;100.00
72721;BME280;60835;50.974;10.322;2022-09-17T13:06:36;98275.50;;;19.13;100.00
72721;BME280;60835;50.974;10.322;2022-09-17T13:19:59;98239.34;;;18.64;100.00
72721;BME280;60835;50.974;10.322;2022-09-17T13:22:32;98241.38;;;17.51;100.00
72721;BME280;60835;50.974;10.322;2022-09-17T13:25:10;98252.44;;;17.35;100.00
72721;BME280;60835;50.974;10.322;2022-09-17T13:27:38;98228.69;;;17.05;100.00
72721;BME280;60835;50.974;10.322;2022-09-17T13:30:06;98242.00;;;16.92;100.00
72721;BME280;60835;50.974;10.322;2022-09-17T13:37:41;98251.22;;;17.31;100.00
72721;BME280;60835;50.974;10.322;2022-09-17T13:40:34;98250.28;;;17.04;100.00
72721;BME280;60835;50.974;10.322;2022-09-17T13:48:30;98295.31;;;16.66;100.00
72721;BME280;60835;50.974;10.322;2022-09-17T13:52:03;98287.44;;;16.58;100.00
72721;BME280;60835;50.974;10.322;2022-09-17T13:54:06;98264.69;;;15.86;100.00
72721;BME280;60835;50.974;10.322;2022-09-17T13:56:40;98259.22;;;15.51;100.00
72721;BME280;60835;50.974;10.322;2022-09-17T14:06:59;98168.09;;;14.40;100.00
72721;BME280;60835;50.974;10.322;2022-09-17T14:09:39;98168.56;;;14.44;100.00
72721;BME280;60835;50.974;10.322;2022-09-17T14:15:35;98079.50;;;13.29;100.00
72721;BME280;60835;50.974;10.322;2022-09-17T14:21:19;97943.66;;;12.43;100.00
72721;BME280;60835;50.974;10.322;2022-09-17T14:23:55;97892.97;;;12.15;100.00
72721;BME280;60835;50.974;10.322;2022-09-17T14:26:34;97855.38;;;11.89;100.00
72721;BME280;60835;50.974;10.322;2022-09-17T14:29:36;97810.38;;;11.81;100.00
72721;BME280;60835;50.974;10.322;2022-09-17T14:32:23;97758.69;;;11.85;100.00
72721;BME280;60835;50.974;10.322;2022-09-17T14:34:52;97750.84;;;11.92;100.00
72721;BME280;60835;50.974;10.322;2022-09-17T14:37:20;97764.63;;;12.25;100.00
72721;BME280;60835;50.974;10.322;2022-09-17T14:39:50;97740.28;;;12.06;100.00
72721;BME280;60835;50.974;10.322;2022-09-17T14:42:22;97750.94;;;12.36;100.00
72721;BME280;60835;50.974;10.322;2022-09-17T14:44:56;97759.63;;;12.44;100.00
72721;BME280;60835;50.974;10.322;2022-09-17T14:47:25;97747.81;;;12.32;100.00
72721;BME280;60835;50.974;10.322;2022-09-17T14:49:52;97720.34;;;12.40;100.00
72721;BME280;60835;50.974;10.322;2022-09-17T14:52:30;97716.44;;;12.50;100.00
72721;BME280;60835;50.974;10.322;2022-09-17T14:55:15;97685.78;;;12.48;100.00
72721;BME280;60835;50.974;10.322;2022-09-17T14:57:44;97691.94;;;12.84;100.00
72721;BME280;60835;50.974;10.322;2022-09-17T15:00:40;97732.38;;;13.01;100.00
72721;BME280;60835;50.974;10.322;2022-09-17T15:03:05;97771.06;;;13.39;100.00
72721;BME280;60835;50.974;10.322;2022-09-17T15:05:36;97787.66;;;13.41;100.00
72721;BME280;60835;50.974;10.322;2022-09-17T15:10:46;97821.91;;;13.93;100.00
72721;BME280;60835;50.974;10.322;2022-09-17T15:13:17;97857.97;;;13.60;100.00
72721;BME280;60835;50.974;10.322;2022-09-17T15:16:26;97869.38;;;13.75;100.00
72721;BME280;60835;50.974;10.322;2022-09-17T15:18:59;97884.06;;;13.71;100.00
72721;BME280;60835;50.974;10.322;2022-09-17T15:26:51;97948.50;;;13.73;100.00
72721;BME280;60835;50.974;10.322;2022-09-17T15:29:22;98033.38;;;13.89;100.00
72721;BME280;60835;50.974;10.322;2022-09-17T15:31:51;98064.47;;;13.88;100.00
72721;BME280;60835;50.974;10.322;2022-09-17T15:34:17;98069.47;;;13.98;100.00
72721;BME280;60835;50.974;10.322;2022-09-17T15:37:15;98088.94;;;13.84;100.00
72721;BME280;60835;50.974;10.322;2022-09-17T15:39:46;98091.34;;;13.79;100.00
72721;BME280;60835;50.974;10.322;2022-09-17T15:44:44;98113.59;;;13.78;100.00
72721;BME280;60835;50.974;10.322;2022-09-17T15:47:33;98102.13;;;13.77;100.00